createdAt,value
2022-10-16T00:01:41.330Z,100324.81
2022-10-16T00:04:09.760Z,100329.13
2022-10-16T00:06:37.286Z,100321.97
2022-10-16T00:09:04.951Z,100317.06
2022-10-16T00:11:39.927Z,100322.28
2022-10-16T00:14:12.289Z,100318.06
2022-10-16T00:16:40.276Z,100323.28
2022-10-16T00:19:07.879Z,100317.06
2022-10-16T00:21:35.309Z,100321.53
2022-10-16T00:24:21.052Z,100318.00
2022-10-16T00:26:50.376Z,100327.91
2022-10-16T00:29:17.901Z,100329.50
2022-10-16T00:31:45.380Z,100330.69
2022-10-16T00:34:12.749Z,100331.56
2022-10-16T00:36:40.312Z,100341.25
2022-10-16T00:39:08.216Z,100341.81
2022-10-16T00:41:35.741Z,100342.72
2022-10-16T00:44:24.723Z,100332.31
2022-10-16T00:46:52.154Z,100336.69
2022-10-16T00:49:21.276Z,100343.06
2022-10-16T00:51:51.217Z,100338.87
2022-10-16T00:54:25.949Z,100346.66
2022-10-16T00:56:55.205Z,100343.31
2022-10-16T00:59:40.388Z,100349.50
2022-10-16T01:02:10.676Z,100353.97
2022-10-16T01:04:40.031Z,100360.25
2022-10-16T01:07:32.436Z,100356.75
2022-10-16T01:10:16.448Z,100367.28
2022-10-16T01:12:56.236Z,100363.81
2022-10-16T01:15:30.722Z,100363.91
2022-10-16T01:17:59.758Z,100365.66
2022-10-16T01:20:33.232Z,100368.41
2022-10-16T01:23:21.723Z,100380.72
2022-10-16T01:26:28.780Z,100365.84
2022-10-16T01:28:59.796Z,100374.62
2022-10-16T01:31:30.603Z,100384.69
2022-10-16T01:34:04.229Z,100380.25
2022-10-16T01:36:39.285Z,100380.28
2022-10-16T01:39:07.994Z,100386.56
2022-10-16T01:41:43.006Z,100383.22
2022-10-16T01:44:27.070Z,100383.44
2022-10-16T01:46:55.171Z,100381.56
2022-10-16T01:49:24.593Z,100382.50
2022-10-16T01:51:56.527Z,100386.06
2022-10-16T01:54:29.784Z,100377.34
2022-10-16T01:56:57.707Z,100378.56
2022-10-16T01:59:27.369Z,100383.19
2022-10-16T02:01:58.432Z,100385.69
2022-10-16T02:04:34.314Z,100393.56
2022-10-16T02:07:01.918Z,100393.66
2022-10-16T02:09:30.968Z,100394.50
2022-10-16T02:12:00.649Z,100398.00
2022-10-16T02:14:28.016Z,100402.50
2022-10-16T02:16:55.713Z,100409.53
2022-10-16T02:19:23.260Z,100400.88
2022-10-16T02:21:52.912Z,100408.88
2022-10-16T02:24:51.670Z,100408.72
2022-10-16T02:27:24.716Z,100405.12
2022-10-16T02:29:59.732Z,100404.38
2022-10-16T02:32:31.706Z,100405.38
2022-10-16T02:35:00.441Z,100407.16
2022-10-16T02:37:28.295Z,100406.31
2022-10-16T02:39:57.815Z,100407.22
2022-10-16T02:42:31.024Z,100412.50
2022-10-16T02:44:58.568Z,100409.87
2022-10-16T02:47:26.160Z,100423.97
2022-10-16T02:49:53.532Z,100424.09
2022-10-16T02:52:20.802Z,100416.25
2022-10-16T02:54:48.382Z,100418.94
2022-10-16T02:57:15.775Z,100421.62
2022-10-16T02:59:43.072Z,100428.69
2022-10-16T03:02:10.649Z,100428.69
2022-10-16T03:04:38.139Z,100429.69
2022-10-16T03:07:05.615Z,100421.88
2022-10-16T03:09:33.260Z,100421.09
2022-10-16T03:12:00.555Z,100426.31
2022-10-16T03:17:00.404Z,100435.22
2022-10-16T03:19:27.695Z,100434.28
2022-10-16T03:21:54.992Z,100434.25
2022-10-16T03:24:22.536Z,100437.88
2022-10-16T03:26:49.807Z,100446.72
2022-10-16T03:29:17.124Z,100443.19
2022-10-16T03:31:44.724Z,100442.34
2022-10-16T03:34:12.183Z,100439.75
2022-10-16T03:36:39.478Z,100451.09
2022-10-16T03:39:07.244Z,100452.91
2022-10-16T03:41:34.525Z,100458.94
2022-10-16T03:44:01.824Z,100445.94
2022-10-16T03:46:29.647Z,100456.38
2022-10-16T03:48:56.950Z,100456.47
2022-10-16T03:51:24.315Z,100456.50
2022-10-16T03:53:51.985Z,100455.62
2022-10-16T03:56:19.268Z,100462.78
2022-10-16T03:58:46.565Z,100462.75
2022-10-16T04:01:14.198Z,100462.81
2022-10-16T04:03:42.040Z,100467.22
2022-10-16T04:06:09.843Z,100472.44
2022-10-16T04:08:37.632Z,100467.22
2022-10-16T04:11:05.717Z,100470.75
2022-10-16T04:13:33.015Z,100474.28
2022-10-16T04:16:00.324Z,100484.81
2022-10-16T04:18:28.237Z,100480.50
2022-10-16T04:20:55.556Z,100476.16
2022-10-16T04:23:23.951Z,100469.22
2022-10-16T04:25:51.878Z,100481.37
2022-10-16T04:28:19.218Z,100474.47
2022-10-16T04:30:46.564Z,100473.66
2022-10-16T04:33:14.128Z,100471.88
2022-10-16T04:35:41.478Z,100475.34
2022-10-16T04:38:09.306Z,100483.28
2022-10-16T04:40:39.731Z,100474.53
2022-10-16T04:43:08.303Z,100473.72
2022-10-16T04:45:35.590Z,100481.53
2022-10-16T04:48:03.184Z,100483.31
2022-10-16T04:50:30.475Z,100495.50
2022-10-16T04:53:01.510Z,100493.72
2022-10-16T04:55:29.070Z,100496.34
2022-10-16T04:57:56.355Z,100498.97
2022-10-16T05:00:23.681Z,100493.81
2022-10-16T05:02:52.038Z,100494.63
2022-10-16T05:05:20.458Z,100497.28
2022-10-16T05:07:48.475Z,100498.13
2022-10-16T05:10:16.351Z,100490.28
2022-10-16T05:12:44.361Z,100497.28
2022-10-16T05:15:11.692Z,100506.84
2022-10-16T05:17:42.560Z,100509.50
2022-10-16T05:20:13.046Z,100509.50
2022-10-16T05:22:40.622Z,100511.22
2022-10-16T05:25:07.984Z,100511.22
2022-10-16T05:27:35.276Z,100508.63
2022-10-16T05:30:03.017Z,100509.44
2022-10-16T05:32:30.372Z,100512.94
2022-10-16T05:34:57.727Z,100512.09
2022-10-16T05:37:25.559Z,100515.53
2022-10-16T05:39:53.048Z,100513.81
2022-10-16T05:42:20.331Z,100519.88
2022-10-16T05:44:47.888Z,100516.34
2022-10-16T05:47:15.435Z,100518.91
2022-10-16T05:49:42.747Z,100523.22
2022-10-16T05:52:10.297Z,100523.94
2022-10-16T05:54:37.597Z,100526.53
2022-10-16T05:57:06.624Z,100528.16
2022-10-16T05:59:34.187Z,100530.59
2022-10-16T06:02:01.486Z,100534.81
2022-10-16T06:04:29.044Z,100530.25
2022-10-16T06:07:01.205Z,100537.03
2022-10-16T06:09:28.787Z,100545.47
2022-10-16T06:11:56.410Z,100551.56
2022-10-16T06:14:23.726Z,100554.00
2022-10-16T06:16:51.286Z,100552.13
2022-10-16T06:19:19.420Z,100551.03
2022-10-16T06:21:47.041Z,100556.84
2022-10-16T06:24:14.655Z,100557.66
2022-10-16T06:26:41.943Z,100566.28
2022-10-16T06:29:09.484Z,100575.59
2022-10-16T06:31:37.115Z,100583.31
2022-10-16T06:34:06.611Z,100580.59
2022-10-16T06:36:33.891Z,100585.69
2022-10-16T06:39:01.554Z,100578.59
2022-10-16T06:41:28.860Z,100587.34
2022-10-16T06:43:57.019Z,100583.88
2022-10-16T06:46:25.838Z,100582.78
2022-10-16T06:48:55.952Z,100586.13
2022-10-16T06:51:24.949Z,100601.88
2022-10-16T06:54:03.456Z,100606.06
2022-10-16T06:56:32.851Z,100609.81
2022-10-16T06:59:00.955Z,100611.72
2022-10-16T07:01:28.540Z,100614.16
2022-10-16T07:03:55.882Z,100617.66
2022-10-16T07:06:25.068Z,100610.44
2022-10-16T07:08:52.383Z,100618.41
2022-10-16T07:11:21.980Z,100622.59
2022-10-16T07:13:54.429Z,100623.78
2022-10-16T07:16:28.522Z,100636.94
2022-10-16T07:19:00.650Z,100631.47
2022-10-16T07:21:30.819Z,100629.63
2022-10-16T07:24:00.443Z,100630.50
2022-10-16T07:26:28.919Z,100635.69
2022-10-16T07:28:57.707Z,100631.16
2022-10-16T07:31:25.955Z,100624.94
2022-10-16T07:33:53.579Z,100624.75
2022-10-16T07:36:21.669Z,100627.34
2022-10-16T07:38:51.033Z,100623.78
2022-10-16T07:41:20.892Z,100627.09
2022-10-16T07:43:49.647Z,100635.41
2022-10-16T07:46:18.029Z,100631.94
2022-10-16T07:48:47.971Z,100643.44
2022-10-16T07:51:17.917Z,100638.16
2022-10-16T07:53:45.782Z,100638.91
2022-10-16T07:56:13.507Z,100642.44
2022-10-16T07:58:40.939Z,100649.38
2022-10-16T08:01:10.744Z,100657.87
2022-10-16T08:03:38.710Z,100661.63
2022-10-16T08:06:06.254Z,100659.03
2022-10-16T08:08:33.680Z,100664.91
2022-10-16T08:11:01.225Z,100661.34
2022-10-16T08:13:28.501Z,100671.91
2022-10-16T08:15:56.283Z,100674.87
2022-10-16T08:18:24.002Z,100678.47
2022-10-16T08:20:58.962Z,100680.06
2022-10-16T08:23:27.461Z,100670.75
2022-10-16T08:25:55.647Z,100675.84
2022-10-16T08:28:23.659Z,100681.00
2022-10-16T08:30:51.286Z,100679.62
2022-10-16T08:33:18.676Z,100682.59
2022-10-16T08:35:54.440Z,100681.88
2022-10-16T08:38:22.397Z,100686.50
2022-10-16T08:40:52.767Z,100691.94
2022-10-16T08:43:21.984Z,100688.97
2022-10-16T08:45:58.693Z,100692.16
2022-10-16T08:48:30.425Z,100691.00
2022-10-16T08:50:58.084Z,100696.62
2022-10-16T08:53:32.531Z,100691.00
2022-10-16T08:56:00.237Z,100694.97
2022-10-16T08:58:29.667Z,100693.63
2022-10-16T09:01:00.147Z,100697.81
2022-10-16T09:04:05.422Z,100709.13
2022-10-16T09:06:57.215Z,100703.38
2022-10-16T09:09:42.415Z,100710.72
2022-10-16T09:12:15.400Z,100699.13
2022-10-16T09:14:58.024Z,100708.56
2022-10-16T09:17:39.436Z,100712.72
2022-10-16T09:20:12.845Z,100711.97
2022-10-16T09:22:40.374Z,100715.56
2022-10-16T09:25:19.148Z,100717.88
2022-10-16T09:27:49.236Z,100701.41
2022-10-16T09:30:21.350Z,100703.41
2022-10-16T09:32:51.281Z,100702.41
2022-10-16T09:35:21.722Z,100702.41
2022-10-16T09:37:51.127Z,100705.13
2022-10-16T09:40:36.633Z,100704.25
2022-10-16T09:43:19.151Z,100703.12
2022-10-16T09:45:59.904Z,100705.81
2022-10-16T09:48:45.140Z,100710.72
2022-10-16T09:51:26.889Z,100723.38
2022-10-16T09:54:02.325Z,100717.69
2022-10-16T09:56:33.546Z,100721.63
2022-10-16T09:59:04.086Z,100730.56
2022-10-16T10:01:38.576Z,100721.66
2022-10-16T10:04:06.681Z,100721.87
2022-10-16T10:06:48.467Z,100720.53
2022-10-16T10:09:25.829Z,100723.72
2022-10-16T10:12:00.423Z,100717.59
2022-10-16T10:14:38.825Z,100711.53
2022-10-16T10:17:06.217Z,100709.38
2022-10-16T10:19:41.532Z,100702.13
2022-10-16T10:22:21.071Z,100696.00
2022-10-16T10:25:00.475Z,100700.59
2022-10-16T10:27:35.875Z,100710.69
2022-10-16T10:30:26.379Z,100696.44
2022-10-16T10:33:21.179Z,100697.47
2022-10-16T10:36:31.894Z,100693.56
2022-10-16T10:39:07.254Z,100690.28
2022-10-16T10:42:01.816Z,100694.44
2022-10-16T10:44:53.908Z,100693.00
2022-10-16T10:47:53.127Z,100691.06
2022-10-16T10:50:35.694Z,100689.03
2022-10-16T10:53:40.052Z,100692.62
2022-10-16T10:56:46.378Z,100693.81
2022-10-16T10:59:41.104Z,100690.41
2022-10-16T11:02:27.061Z,100692.03
2022-10-16T11:05:32.278Z,100698.44
2022-10-16T11:08:03.441Z,100695.69
2022-10-16T11:10:52.980Z,100693.94
2022-10-16T11:13:27.327Z,100692.56
2022-10-16T11:15:58.812Z,100688.06
2022-10-16T11:18:38.805Z,100686.34
2022-10-16T11:21:11.793Z,100678.56
2022-10-16T11:24:20.604Z,100676.88
2022-10-16T11:26:49.039Z,100681.50
2022-10-16T11:29:21.915Z,100683.50
2022-10-16T11:31:53.915Z,100671.34
2022-10-16T11:34:38.652Z,100675.09
2022-10-16T11:37:22.504Z,100675.59
2022-10-16T11:39:51.361Z,100681.50
2022-10-16T11:42:34.452Z,100674.34
2022-10-16T11:45:08.176Z,100679.66
2022-10-16T11:50:32.819Z,100673.38
2022-10-16T11:53:06.082Z,100685.19
2022-10-16T11:55:44.553Z,100677.94
2022-10-16T11:58:31.801Z,100684.97
2022-10-16T12:01:02.088Z,100676.28
2022-10-16T12:03:44.966Z,100675.88
2022-10-16T12:06:27.076Z,100672.47
2022-10-16T12:08:55.060Z,100671.34
2022-10-16T12:11:28.415Z,100663.13
2022-10-16T12:14:21.440Z,100662.62
2022-10-16T12:16:57.373Z,100666.25
2022-10-16T12:19:27.572Z,100661.66
2022-10-16T12:22:00.370Z,100658.75
2022-10-16T12:24:34.076Z,100659.88
2022-10-16T12:27:01.803Z,100659.66
2022-10-16T12:29:39.079Z,100650.78
2022-10-16T12:35:24.981Z,100653.78
2022-10-16T12:37:52.930Z,100661.84
2022-10-16T12:40:30.065Z,100655.56
2022-10-16T12:42:57.673Z,100657.16
2022-10-16T12:45:33.506Z,100657.56
2022-10-16T12:48:02.945Z,100655.72
2022-10-16T12:50:32.384Z,100655.56
2022-10-16T12:53:01.192Z,100641.00
2022-10-16T12:55:43.241Z,100650.84
2022-10-16T12:58:40.698Z,100649.25
2022-10-16T13:01:23.484Z,100657.56
2022-10-16T13:04:19.322Z,100666.00
2022-10-16T13:06:54.379Z,100669.75
2022-10-16T13:09:29.155Z,100667.59
2022-10-16T13:12:15.515Z,100662.16
2022-10-16T13:15:18.708Z,100659.12
2022-10-16T13:17:54.959Z,100660.81
2022-10-16T13:20:24.907Z,100665.50
2022-10-16T13:22:57.380Z,100664.53
2022-10-16T13:25:40.783Z,100671.97
2022-10-16T13:28:09.629Z,100669.78
2022-10-16T13:30:41.505Z,100668.69
2022-10-16T13:33:21.277Z,100680.19
2022-10-16T13:35:51.693Z,100672.66
2022-10-16T13:38:20.718Z,100672.50
2022-10-16T13:40:52.125Z,100672.69
2022-10-16T13:43:21.423Z,100676.00
2022-10-16T13:46:18.725Z,100674.50
2022-10-16T13:49:04.197Z,100677.41
2022-10-16T13:51:32.551Z,100682.94
2022-10-16T13:54:00.510Z,100676.28
2022-10-16T13:56:30.219Z,100686.25
2022-10-16T13:59:05.398Z,100686.97
2022-10-16T14:01:41.856Z,100693.59
2022-10-16T14:04:11.471Z,100689.69
2022-10-16T14:06:42.757Z,100684.22
2022-10-16T14:09:31.027Z,100691.19
2022-10-16T14:12:03.651Z,100693.44
2022-10-16T14:14:36.848Z,100687.53
2022-10-16T14:17:04.275Z,100690.16
2022-10-16T14:19:32.485Z,100683.91
2022-10-16T14:22:01.045Z,100681.50
2022-10-16T14:24:33.390Z,100683.25
2022-10-16T14:27:01.574Z,100680.84
2022-10-16T14:29:32.481Z,100688.06
2022-10-16T14:32:02.035Z,100688.41
2022-10-16T14:34:38.223Z,100681.91
2022-10-16T14:37:18.116Z,100681.25
2022-10-16T14:39:50.409Z,100682.00
2022-10-16T14:42:20.205Z,100688.47
2022-10-16T14:44:48.644Z,100687.19
2022-10-16T14:47:18.267Z,100690.78
2022-10-16T14:49:45.616Z,100690.66
2022-10-16T14:52:13.518Z,100690.56
2022-10-16T14:54:41.076Z,100687.81
2022-10-16T14:57:18.974Z,100697.47
2022-10-16T14:59:47.215Z,100691.63
2022-10-16T15:02:35.167Z,100690.78
2022-10-16T15:05:15.712Z,100692.41
2022-10-16T15:07:43.344Z,100686.56
2022-10-16T15:10:11.438Z,100691.13
2022-10-16T15:12:38.851Z,100686.00
2022-10-16T15:15:21.659Z,100688.06
2022-10-16T15:18:01.233Z,100700.53
2022-10-16T15:20:31.071Z,100701.97
2022-10-16T15:22:58.659Z,100701.22
2022-10-16T15:25:35.614Z,100705.72
2022-10-16T15:28:04.596Z,100713.72
2022-10-16T15:30:32.059Z,100711.19
2022-10-16T15:32:59.659Z,100715.44
2022-10-16T15:35:27.240Z,100714.25
2022-10-16T15:37:54.886Z,100720.34
2022-10-16T15:40:23.532Z,100714.59
2022-10-16T15:42:51.122Z,100719.47
2022-10-16T15:45:20.033Z,100722.09
2022-10-16T15:47:47.560Z,100726.50
2022-10-16T15:50:16.516Z,100726.94
2022-10-16T15:52:43.937Z,100720.19
2022-10-16T15:55:12.811Z,100718.81
2022-10-16T15:57:42.242Z,100727.97
2022-10-16T16:00:14.443Z,100723.16
2022-10-16T16:02:43.091Z,100720.81
2022-10-16T16:05:11.900Z,100724.53
2022-10-16T16:07:40.282Z,100732.94
2022-10-16T16:10:09.425Z,100733.13
2022-10-16T16:12:37.548Z,100743.13
2022-10-16T16:15:06.760Z,100758.41
2022-10-16T16:17:35.393Z,100750.66
2022-10-16T16:20:03.243Z,100759.03
2022-10-16T16:22:31.016Z,100756.25
2022-10-16T16:24:58.900Z,100756.72
2022-10-16T16:27:26.764Z,100765.69
2022-10-16T16:29:56.169Z,100772.06
2022-10-16T16:32:23.754Z,100770.53
2022-10-16T16:34:51.040Z,100782.28
2022-10-16T16:37:18.385Z,100792.00
2022-10-16T16:39:46.136Z,100794.06
2022-10-16T16:42:13.669Z,100805.53
2022-10-16T16:44:40.963Z,100797.84
2022-10-16T16:47:08.539Z,100798.03
2022-10-16T16:49:36.133Z,100797.09
2022-10-16T16:52:03.596Z,100801.53
2022-10-16T16:54:31.292Z,100799.87
2022-10-16T16:56:58.688Z,100804.69
2022-10-16T16:59:26.056Z,100809.72
2022-10-16T17:01:56.977Z,100817.72
2022-10-16T17:04:24.887Z,100810.94
2022-10-16T17:06:54.049Z,100808.69
2022-10-16T17:09:22.064Z,100821.78
2022-10-16T17:11:49.607Z,100832.56
2022-10-16T17:14:16.945Z,100837.88
2022-10-16T17:16:45.004Z,100841.38
2022-10-16T17:19:15.624Z,100845.84
2022-10-16T17:21:43.342Z,100852.03
2022-10-16T17:24:11.339Z,100853.06
2022-10-16T17:26:41.317Z,100855.00
2022-10-16T17:29:11.703Z,100862.06
2022-10-16T17:31:39.342Z,100861.28
2022-10-16T17:34:08.445Z,100865.75
2022-10-16T17:36:37.223Z,100864.81
2022-10-16T17:39:07.937Z,100868.41
2022-10-16T17:41:36.677Z,100864.00
2022-10-16T17:44:05.263Z,100874.66
2022-10-16T17:46:36.958Z,100879.97
2022-10-16T17:49:07.531Z,100885.28
2022-10-16T17:51:35.171Z,100884.50
2022-10-16T17:54:03.119Z,100890.75
2022-10-16T17:56:30.956Z,100890.81
2022-10-16T17:59:00.830Z,100889.94
2022-10-16T18:01:33.593Z,100895.13
2022-10-16T18:04:07.245Z,100896.16
2022-10-16T18:06:34.707Z,100896.19
2022-10-16T18:09:02.952Z,100901.41
2022-10-16T18:11:30.703Z,100905.06
2022-10-16T18:13:59.166Z,100900.81
2022-10-16T18:16:28.147Z,100906.84
2022-10-16T18:18:59.570Z,100909.53
2022-10-16T18:21:28.382Z,100910.47
2022-10-16T18:23:57.714Z,100900.72
2022-10-16T18:26:25.182Z,100898.16
2022-10-16T18:28:54.236Z,100912.31
2022-10-16T18:31:23.077Z,100903.53
2022-10-16T18:33:51.399Z,100913.28
2022-10-16T18:36:21.574Z,100908.03
2022-10-16T18:38:48.996Z,100915.03
2022-10-16T18:41:16.559Z,100921.28
2022-10-16T18:43:44.405Z,100921.28
2022-10-16T18:46:14.296Z,100919.47
2022-10-16T18:48:42.307Z,100917.78
2022-10-16T18:51:17.870Z,100924.81
2022-10-16T18:53:48.586Z,100922.25
2022-10-16T18:56:17.774Z,100925.75
2022-10-16T18:58:48.219Z,100926.62
2022-10-16T19:01:20.925Z,100930.19
2022-10-16T19:03:49.457Z,100932.94
2022-10-16T19:06:17.202Z,100931.97
2022-10-16T19:08:44.628Z,100936.47
2022-10-16T19:11:13.874Z,100946.13
2022-10-16T19:13:42.539Z,100940.84
2022-10-16T19:16:20.466Z,100934.72
2022-10-16T19:18:50.561Z,100944.41
2022-10-16T19:21:18.581Z,100943.50
2022-10-16T19:23:46.057Z,100942.66
2022-10-16T19:26:16.222Z,100942.66
2022-10-16T19:28:44.739Z,100947.91
2022-10-16T19:31:14.885Z,100947.97
2022-10-16T19:33:42.619Z,100940.97
2022-10-16T19:36:18.465Z,100941.81
2022-10-16T19:38:46.668Z,100941.91
2022-10-16T19:41:17.106Z,100947.19
2022-10-16T19:43:45.094Z,100956.78
2022-10-16T19:46:15.140Z,100962.06
2022-10-16T19:48:42.954Z,100963.84
2022-10-16T19:51:18.474Z,100970.03
2022-10-16T19:53:47.091Z,100977.88
2022-10-16T19:56:22.072Z,100977.03
2022-10-16T19:58:50.869Z,100976.16
2022-10-16T20:01:18.541Z,100979.63
2022-10-16T20:03:47.383Z,100978.78
2022-10-16T20:06:17.293Z,100981.41
2022-10-16T20:08:45.852Z,100984.03
2022-10-16T20:11:16.136Z,100991.91
2022-10-16T20:13:43.811Z,100993.66
2022-10-16T20:16:12.289Z,100990.22
2022-10-16T20:18:40.851Z,100998.91
2022-10-16T20:21:13.532Z,101009.41
2022-10-16T20:23:41.404Z,101022.53
2022-10-16T20:26:11.452Z,101015.56
2022-10-16T20:28:40.544Z,101018.19
2022-10-16T20:31:23.461Z,101022.53
2022-10-16T20:33:52.263Z,101030.41
2022-10-16T20:36:21.597Z,101034.78
2022-10-16T20:38:49.201Z,101039.16
2022-10-16T20:41:17.021Z,101037.44
2022-10-16T20:43:46.967Z,101041.81
2022-10-16T20:46:16.637Z,101051.38
2022-10-16T20:48:44.717Z,101054.06
2022-10-16T20:51:16.019Z,101050.53
2022-10-16T20:53:45.335Z,101054.03
2022-10-16T20:56:15.721Z,101053.16
2022-10-16T20:58:43.454Z,101053.16
2022-10-16T21:01:13.666Z,101048.78
2022-10-16T21:03:41.485Z,101060.16
2022-10-16T21:06:09.607Z,101056.66
2022-10-16T21:08:42.094Z,101065.38
2022-10-16T21:11:21.038Z,101062.75
2022-10-16T21:13:49.191Z,101065.38
2022-10-16T21:16:17.199Z,101070.59
2022-10-16T21:18:45.052Z,101072.34
2022-10-16T21:21:20.530Z,101068.84
2022-10-16T21:23:49.224Z,101077.59
2022-10-16T21:26:18.126Z,101081.94
2022-10-16T21:28:45.485Z,101078.47
2022-10-16T21:31:18.673Z,101074.97
2022-10-16T21:33:46.907Z,101074.94
2022-10-16T21:36:29.245Z,101077.56
2022-10-16T21:39:01.047Z,101086.28
2022-10-16T21:41:29.168Z,101076.69
2022-10-16T21:43:57.511Z,101079.34
2022-10-16T21:46:27.179Z,101081.06
2022-10-16T21:48:56.339Z,101077.56
2022-10-16T21:51:28.368Z,101079.31
2022-10-16T21:53:55.944Z,101079.31
2022-10-16T21:56:23.476Z,101077.53
2022-10-16T21:58:50.770Z,101077.56
2022-10-16T22:01:21.129Z,101077.56
2022-10-16T22:03:48.946Z,101084.50
2022-10-16T22:06:18.594Z,101086.25
2022-10-16T22:08:47.836Z,101093.25
2022-10-16T22:11:22.011Z,101088.00
2022-10-16T22:13:54.169Z,101086.22
2022-10-16T22:16:26.104Z,101093.22
2022-10-16T22:18:54.702Z,101099.31
2022-10-16T22:21:22.359Z,101102.78
2022-10-16T22:23:50.056Z,101107.16
2022-10-16T22:26:17.355Z,101108.94
2022-10-16T22:28:44.691Z,101108.88
2022-10-16T22:31:13.985Z,101106.25
2022-10-16T22:33:41.488Z,101107.97
2022-10-16T22:36:11.880Z,101107.13
2022-10-16T22:38:39.733Z,101111.50
2022-10-16T22:41:09.946Z,101108.84
2022-10-16T22:43:43.063Z,101112.31
2022-10-16T22:46:16.002Z,101119.31
2022-10-16T22:48:43.375Z,101107.13
2022-10-16T22:51:16.582Z,101112.28
2022-10-16T22:53:49.040Z,101113.16
2022-10-16T22:56:18.211Z,101114.91
2022-10-16T22:58:45.552Z,101113.16
2022-10-16T23:01:37.311Z,101119.25
2022-10-16T23:04:05.527Z,101125.37
2022-10-16T23:06:33.652Z,101120.16
2022-10-16T23:09:02.082Z,101133.22
2022-10-16T23:11:30.717Z,101137.53
2022-10-16T23:13:58.059Z,101134.03
2022-10-16T23:16:25.540Z,101136.66
2022-10-16T23:18:53.185Z,101145.34
2022-10-16T23:21:23.372Z,101145.28
2022-10-16T23:23:51.804Z,101153.09
2022-10-16T23:26:21.656Z,101150.56
2022-10-16T23:28:49.104Z,101152.28
2022-10-16T23:31:17.001Z,101150.53
2022-10-16T23:33:44.748Z,101147.88
2022-10-16T23:36:14.980Z,101144.34
2022-10-16T23:38:43.318Z,101150.50
2022-10-16T23:41:11.390Z,101159.16
2022-10-16T23:43:38.938Z,101163.50
2022-10-16T23:46:07.468Z,101165.25
2022-10-16T23:48:35.207Z,101167.03
2022-10-16T23:51:02.490Z,101169.63
2022-10-16T23:53:29.925Z,101166.09
2022-10-16T23:55:57.493Z,101168.75
2022-10-16T23:58:24.811Z,101166.09
